Time;durP1;ratioP1;P1;durP2;ratioP2;P2;SDS_P1;SDS_P2;PMS_P1;PMS_P2;Temp;Humidity;BMP_temperature;BMP_pressure;BME280_temperature;BME280_humidity;BME280_pressure;Samples;Min_cycle;Max_cycle;Signal;HPM_P1;HPM_P2
2024/02/11 00:01:59;;;;;;;14.57;8.27;;;9.00;99.90;;;;;;4112220;28;20074;-61
2024/02/11 00:04:02;;;;;;;14.40;7.40;;;9.10;99.90;;;;;;4111956;28;20086;-61
2024/02/11 00:06:06;;;;;;;17.47;8.73;;;9.20;99.90;;;;;;4112241;28;20082;-62
2024/02/11 00:08:08;;;;;;;16.70;9.03;;;9.20;99.90;;;;;;4111371;28;20090;-63
2024/02/11 00:10:10;;;;;;;20.13;9.00;;;9.20;99.90;;;;;;4111073;28;20105;-61
2024/02/11 00:12:11;;;;;;;17.17;8.40;;;9.20;99.90;;;;;;4110496;28;20031;-61
2024/02/11 00:14:12;;;;;;;18.43;8.63;;;9.20;99.90;;;;;;4101883;28;21877;-60
2024/02/11 00:16:14;;;;;;;15.77;7.93;;;9.20;99.90;;;;;;4095340;28;20051;-61
2024/02/11 00:18:19;;;;;;;16.60;7.93;;;9.10;99.90;;;;;;4097304;28;20482;-62
2024/02/11 00:20:21;;;;;;;14.80;7.80;;;9.10;99.90;;;;;;4103069;28;20031;-61
2024/02/11 00:22:23;;;;;;;13.27;7.20;;;9.10;99.90;;;;;;4099929;28;20144;-63
2024/02/11 00:24:29;;;;;;;13.80;7.70;;;9.10;99.90;;;;;;4100610;28;20067;-61
2024/02/11 00:26:30;;;;;;;14.27;8.00;;;9.20;99.90;;;;;;4115804;28;20423;-62
2024/02/11 00:28:32;;;;;;;15.90;7.43;;;9.20;99.90;;;;;;4114398;28;20047;-61
2024/02/11 00:30:34;;;;;;;14.07;7.93;;;9.20;99.90;;;;;;4115508;28;20450;-62
2024/02/11 00:32:37;;;;;;;17.10;8.63;;;9.20;99.90;;;;;;4109766;28;20478;-62
2024/02/11 00:34:38;;;;;;;14.73;8.00;;;9.30;99.90;;;;;;4107976;28;20030;-62
2024/02/11 00:36:40;;;;;;;13.00;7.43;;;9.20;99.90;;;;;;4107249;28;20043;-62
2024/02/11 00:38:42;;;;;;;13.57;7.47;;;9.20;99.90;;;;;;4098748;28;20556;-62
2024/02/11 00:40:43;;;;;;;19.73;7.53;;;9.20;99.90;;;;;;4102698;28;20035;-64
2024/02/11 00:42:45;;;;;;;16.83;8.93;;;9.20;99.90;;;;;;4112220;28;20454;-63
2024/02/11 00:44:47;;;;;;;14.40;7.60;;;9.20;99.90;;;;;;4098963;28;20051;-61
2024/02/11 00:46:48;;;;;;;14.53;7.90;;;9.20;99.90;;;;;;4098407;29;20039;-61
2024/02/11 00:48:49;;;;;;;15.47;7.40;;;9.10;99.90;;;;;;4099740;28;20122;-63
2024/02/11 00:50:51;;;;;;;15.17;8.20;;;9.10;99.90;;;;;;4099511;28;20031;-61
2024/02/11 00:52:52;;;;;;;16.50;7.93;;;9.10;99.90;;;;;;4100872;28;20545;-64
2024/02/11 00:54:53;;;;;;;12.53;6.90;;;9.10;99.90;;;;;;4111995;28;20078;-63
2024/02/11 00:56:55;;;;;;;17.10;6.93;;;9.20;99.90;;;;;;4099019;28;20503;-64
2024/02/11 00:58:57;;;;;;;15.37;6.93;;;9.20;99.90;;;;;;4099017;28;20042;-64
2024/02/11 01:00:58;;;;;;;14.93;7.33;;;9.20;99.90;;;;;;4114576;28;20038;-64
2024/02/11 01:03:00;;;;;;;14.90;7.17;;;9.20;99.90;;;;;;4113915;28;20374;-63
2024/02/11 01:05:01;;;;;;;14.87;7.63;;;9.20;99.90;;;;;;4105543;28;20047;-63
2024/02/11 01:07:02;;;;;;;14.67;7.83;;;9.20;99.90;;;;;;4098361;28;20534;-63
2024/02/11 01:09:05;;;;;;;11.83;7.07;;;9.20;99.90;;;;;;4105549;28;20034;-64
2024/02/11 01:11:08;;;;;;;12.60;7.00;;;9.20;99.90;;;;;;4111219;28;20435;-63
2024/02/11 01:13:13;;;;;;;15.80;7.77;;;9.20;99.90;;;;;;4112172;28;20023;-64
2024/02/11 01:15:17;;;;;;;16.23;7.20;;;9.20;99.90;;;;;;4105403;28;20031;-64
2024/02/11 01:17:19;;;;;;;19.60;7.83;;;9.20;99.90;;;;;;4097836;28;20468;-63
2024/02/11 01:19:20;;;;;;;12.57;7.13;;;9.20;99.90;;;;;;4099291;29;20031;-63
2024/02/11 01:21:23;;;;;;;16.07;7.67;;;9.20;99.90;;;;;;4103646;28;20035;-62
2024/02/11 01:23:24;;;;;;;13.23;7.87;;;9.20;99.90;;;;;;4115007;28;20077;-65
2024/02/11 01:25:26;;;;;;;15.77;8.40;;;9.20;99.90;;;;;;4106984;28;20039;-62
2024/02/11 01:27:27;;;;;;;14.00;8.00;;;9.20;99.90;;;;;;4098888;28;20094;-63
2024/02/11 01:29:28;;;;;;;15.03;8.70;;;9.10;99.90;;;;;;4097504;29;20119;-61
2024/02/11 01:31:29;;;;;;;17.37;7.47;;;9.00;99.90;;;;;;4099512;28;20047;-62
2024/02/11 01:33:30;;;;;;;15.17;8.90;;;9.00;99.90;;;;;;4096837;28;20047;-62
2024/02/11 01:35:32;;;;;;;16.33;8.73;;;8.90;99.90;;;;;;4098624;28;20432;-63
2024/02/11 01:37:34;;;;;;;21.70;8.20;;;8.90;99.90;;;;;;4103979;28;20035;-62
2024/02/11 01:39:35;;;;;;;17.80;8.17;;;8.80;99.90;;;;;;4107865;28;20507;-63
2024/02/11 01:41:37;;;;;;;20.03;8.60;;;8.80;99.90;;;;;;4106485;28;20478;-61
2024/02/11 01:43:38;;;;;;;16.10;8.23;;;8.70;99.90;;;;;;4114189;28;20050;-63
2024/02/11 01:45:41;;;;;;;15.57;9.27;;;8.60;99.90;;;;;;4113532;28;20040;-59
2024/02/11 01:47:45;;;;;;;14.50;8.90;;;8.60;99.90;;;;;;4111879;28;20081;-64
2024/02/11 01:49:47;;;;;;;19.90;8.57;;;8.60;99.90;;;;;;4114602;28;20113;-62
2024/02/11 01:51:50;;;;;;;17.67;9.03;;;8.60;99.90;;;;;;4113535;28;20054;-62
2024/02/11 01:53:51;;;;;;;15.37;8.53;;;8.60;99.90;;;;;;4114190;28;20039;-61
2024/02/11 01:55:53;;;;;;;14.83;8.60;;;8.50;99.90;;;;;;4103677;28;20082;-62
2024/02/11 01:57:56;;;;;;;19.80;9.07;;;8.50;99.90;;;;;;4098299;28;20066;-63
2024/02/11 01:59:57;;;;;;;17.87;8.07;;;8.50;99.90;;;;;;4107910;28;20093;-60
2024/02/11 02:01:58;;;;;;;16.47;8.90;;;8.50;99.90;;;;;;4113887;28;20491;-61
2024/02/11 02:04:00;;;;;;;19.07;8.87;;;8.50;99.90;;;;;;4113050;28;20078;-62
2024/02/11 02:06:01;;;;;;;20.83;9.63;;;8.50;99.90;;;;;;4114339;28;20451;-60
2024/02/11 02:08:04;;;;;;;21.90;9.77;;;8.50;99.90;;;;;;4100350;28;20085;-62
2024/02/11 02:10:06;;;;;;;18.27;9.57;;;8.40;99.90;;;;;;4098444;28;20035;-63
2024/02/11 02:12:08;;;;;;;17.13;9.10;;;8.30;99.90;;;;;;4109751;28;20050;-61
2024/02/11 02:14:09;;;;;;;25.13;10.07;;;8.30;99.90;;;;;;4113384;28;20406;-62
2024/02/11 02:16:10;;;;;;;14.67;8.37;;;8.30;99.90;;;;;;4112937;28;20475;-62
2024/02/11 02:18:12;;;;;;;15.70;8.53;;;8.30;99.90;;;;;;4113071;28;20039;-62
2024/02/11 02:20:14;;;;;;;18.17;8.73;;;8.20;99.90;;;;;;4104741;28;20582;-60
2024/02/11 02:22:16;;;;;;;18.10;8.97;;;8.30;99.90;;;;;;4096969;28;20024;-62
2024/02/11 02:24:17;;;;;;;15.23;8.57;;;8.30;99.90;;;;;;4097807;29;20078;-62
2024/02/11 02:26:19;;;;;;;16.97;8.30;;;8.30;99.90;;;;;;4105626;28;20438;-60
2024/02/11 02:28:20;;;;;;;18.43;9.03;;;8.40;99.90;;;;;;4112991;28;20031;-63
2024/02/11 02:30:22;;;;;;;15.13;7.80;;;8.40;99.90;;;;;;4107638;28;20039;-62
2024/02/11 02:32:23;;;;;;;14.70;8.27;;;8.40;99.90;;;;;;4098154;28;20109;-62
2024/02/11 02:34:25;;;;;;;18.07;8.33;;;8.50;99.90;;;;;;4100615;28;20039;-63
2024/02/11 02:36:27;;;;;;;16.10;7.87;;;8.50;99.90;;;;;;4113499;28;20089;-62
2024/02/11 02:38:28;;;;;;;20.30;9.20;;;8.40;99.90;;;;;;4110865;28;20472;-62
2024/02/11 02:40:30;;;;;;;14.30;7.03;;;8.40;99.90;;;;;;4110472;28;20498;-62
2024/02/11 02:42:31;;;;;;;19.77;9.20;;;8.50;99.90;;;;;;4096705;28;20082;-61
2024/02/11 02:44:32;;;;;;;15.13;7.87;;;8.50;99.90;;;;;;4096331;28;20086;-62
2024/02/11 02:46:34;;;;;;;14.47;7.30;;;8.50;99.90;;;;;;4108696;28;20059;-62
2024/02/11 02:48:35;;;;;;;16.50;7.93;;;8.60;99.90;;;;;;4112942;28;20064;-62
2024/02/11 02:50:36;;;;;;;15.30;7.70;;;8.60;99.90;;;;;;4111192;28;20027;-62
2024/02/11 02:52:37;;;;;;;14.80;7.70;;;8.60;99.90;;;;;;4097940;28;20115;-60
2024/02/11 02:54:43;;;;;;;16.33;8.07;;;8.60;99.90;;;;;;4100009;28;20081;-62
2024/02/11 02:56:46;;;;;;;16.53;7.27;;;8.60;99.90;;;;;;4102794;28;20078;-59
2024/02/11 02:58:47;;;;;;;17.80;7.87;;;8.60;99.90;;;;;;4100030;28;20106;-63
2024/02/11 03:00:48;;;;;;;14.97;7.30;;;8.60;99.90;;;;;;4112325;28;20121;-62
2024/02/11 03:02:52;;;;;;;15.23;8.30;;;8.60;99.90;;;;;;4112993;28;20038;-62
2024/02/11 03:04:54;;;;;;;17.93;7.53;;;8.70;99.90;;;;;;4112124;28;20039;-63
2024/02/11 03:06:55;;;;;;;17.63;8.07;;;8.70;99.90;;;;;;4097321;28;20488;-64
2024/02/11 03:08:57;;;;;;;15.23;7.50;;;8.70;99.90;;;;;;4110847;28;20078;-61
2024/02/11 03:10:59;;;;;;;16.83;8.13;;;8.70;99.90;;;;;;4103898;28;20090;-63
2024/02/11 03:13:00;;;;;;;18.07;7.80;;;8.60;99.90;;;;;;4097391;28;20043;-63
2024/02/11 03:15:04;;;;;;;22.17;7.77;;;8.60;99.90;;;;;;4098714;28;20086;-61
2024/02/11 03:17:05;;;;;;;14.60;7.13;;;8.60;99.90;;;;;;4112237;28;20047;-64
2024/02/11 03:19:06;;;;;;;16.47;7.63;;;8.60;99.90;;;;;;4112700;28;20031;-63
2024/02/11 03:21:08;;;;;;;14.47;6.97;;;8.70;99.90;;;;;;4105384;28;20035;-64
2024/02/11 03:23:09;;;;;;;18.50;8.30;;;8.70;99.90;;;;;;4099564;28;20039;-64
2024/02/11 03:25:12;;;;;;;14.37;7.77;;;8.80;99.90;;;;;;4112303;28;20059;-64
2024/02/11 03:27:13;;;;;;;15.97;7.20;;;8.80;99.90;;;;;;4112592;28;20031;-61
2024/02/11 03:29:15;;;;;;;15.07;7.57;;;8.70;99.90;;;;;;4102353;28;20094;-61
2024/02/11 03:31:16;;;;;;;14.90;7.37;;;8.60;99.90;;;;;;4095722;28;20513;-61
2024/02/11 03:33:18;;;;;;;13.73;7.73;;;8.50;99.90;;;;;;4097372;28;20173;-61
2024/02/11 03:35:19;;;;;;;13.30;7.47;;;8.50;99.90;;;;;;4095876;29;20503;-62
2024/02/11 03:37:20;;;;;;;15.37;8.73;;;8.50;99.90;;;;;;4103246;28;20073;-62
2024/02/11 03:39:24;;;;;;;17.13;8.43;;;8.40;99.90;;;;;;4104543;28;20079;-62
2024/02/11 03:41:25;;;;;;;14.13;8.10;;;8.40;99.90;;;;;;4097351;28;20125;-63
2024/02/11 03:43:26;;;;;;;21.43;9.30;;;8.30;99.90;;;;;;4096167;28;20119;-63
2024/02/11 03:45:28;;;;;;;16.53;8.63;;;8.30;99.90;;;;;;4096649;28;20039;-63
2024/02/11 03:47:29;;;;;;;19.40;9.47;;;8.20;99.90;;;;;;4103710;28;20086;-61
2024/02/11 03:49:30;;;;;;;19.03;10.17;;;8.20;99.90;;;;;;4111187;28;20034;-61
2024/02/11 03:51:31;;;;;;;17.23;9.37;;;8.10;99.90;;;;;;4111587;28;20035;-60
2024/02/11 03:53:34;;;;;;;17.43;9.27;;;8.10;99.90;;;;;;4110708;28;20094;-63
2024/02/11 03:55:36;;;;;;;17.40;8.93;;;8.10;99.90;;;;;;4104927;28;20075;-63
2024/02/11 03:57:38;;;;;;;15.27;8.30;;;8.10;99.90;;;;;;4099630;28;20047;-63
2024/02/11 03:59:40;;;;;;;16.07;8.23;;;8.10;99.90;;;;;;4109047;28;20039;-62
2024/02/11 04:01:41;;;;;;;14.73;7.60;;;8.10;99.90;;;;;;4113354;28;20090;-62
2024/02/11 04:03:42;;;;;;;14.57;7.77;;;8.20;99.90;;;;;;4116072;28;20035;-61
2024/02/11 04:05:44;;;;;;;11.70;6.83;;;8.30;99.90;;;;;;4114768;28;20047;-61
2024/02/11 04:07:50;;;;;;;11.63;7.07;;;8.30;99.90;;;;;;4114175;28;20038;-57
2024/02/11 04:09:52;;;;;;;14.70;7.27;;;8.30;99.90;;;;;;4099782;28;20079;-62
2024/02/11 04:11:58;;;;;;;19.57;7.13;;;8.30;99.90;;;;;;4107454;28;20046;-62
2024/02/11 04:13:59;;;;;;;12.50;5.50;;;8.30;99.90;;;;;;4098894;28;20459;-63
2024/02/11 04:16:11;;;;;;;14.10;7.47;;;8.30;99.90;;;;;;4104367;28;20026;-63
2024/02/11 04:18:12;;;;;;;16.23;7.77;;;8.40;99.90;;;;;;4114249;28;20101;-62
2024/02/11 04:20:24;;;;;;;18.37;7.33;;;8.40;99.90;;;;;;4114645;28;20074;-63
2024/02/11 04:22:25;;;;;;;11.90;6.40;;;8.40;99.90;;;;;;4098666;28;20039;-61
2024/02/11 04:24:28;;;;;;;13.43;6.20;;;8.40;99.90;;;;;;4105343;28;20031;-62
2024/02/11 04:26:29;;;;;;;14.47;6.70;;;8.40;99.90;;;;;;4108375;28;20051;-62
2024/02/11 04:28:30;;;;;;;19.13;7.27;;;8.40;99.90;;;;;;4104613;28;20093;-60
2024/02/11 04:30:31;;;;;;;12.77;6.50;;;8.40;99.90;;;;;;4114843;28;20073;-63
2024/02/11 04:32:33;;;;;;;18.87;7.43;;;8.40;99.90;;;;;;4115061;28;20426;-62
2024/02/11 04:34:34;;;;;;;15.60;7.40;;;8.40;99.90;;;;;;4114881;28;20094;-62
2024/02/11 04:36:36;;;;;;;12.13;7.10;;;8.40;99.90;;;;;;4113241;28;20026;-62
2024/02/11 04:38:38;;;;;;;15.50;7.53;;;8.30;99.90;;;;;;4099223;28;20090;-62
2024/02/11 04:40:40;;;;;;;13.03;6.50;;;8.30;99.90;;;;;;4111285;28;20038;-63
2024/02/11 04:42:45;;;;;;;16.17;7.57;;;8.20;99.90;;;;;;4105164;28;20064;-63
2024/02/11 04:44:47;;;;;;;16.33;7.33;;;8.10;99.90;;;;;;4098138;28;20101;-64
2024/02/11 04:46:48;;;;;;;11.03;6.10;;;8.10;99.90;;;;;;4099797;28;20035;-63
2024/02/11 04:48:50;;;;;;;14.37;6.80;;;8.10;99.90;;;;;;4098817;28;20051;-62
2024/02/11 04:50:52;;;;;;;10.77;5.70;;;8.20;99.90;;;;;;4099791;28;20470;-61
2024/02/11 04:52:56;;;;;;;12.10;6.47;;;8.30;99.90;;;;;;4100212;28;20489;-63
2024/02/11 04:54:57;;;;;;;12.93;6.17;;;8.40;99.90;;;;;;4108499;28;20043;-61
2024/02/11 04:57:00;;;;;;;14.90;6.30;;;8.40;99.90;;;;;;4098158;29;20110;-62
2024/02/11 04:59:04;;;;;;;12.53;6.57;;;8.50;99.90;;;;;;4099427;29;20782;-61
2024/02/11 05:01:05;;;;;;;12.43;6.23;;;8.50;99.90;;;;;;4100234;28;20774;-63
2024/02/11 05:03:11;;;;;;;13.60;6.37;;;8.50;99.90;;;;;;4100082;28;20531;-64
2024/02/11 05:05:12;;;;;;;15.63;6.33;;;8.50;99.90;;;;;;4099407;28;20062;-62
2024/02/11 05:07:13;;;;;;;13.20;6.30;;;8.50;99.90;;;;;;4107270;28;20031;-64
2024/02/11 05:09:15;;;;;;;14.33;6.60;;;8.50;99.90;;;;;;4114201;28;20035;-61
2024/02/11 05:11:17;;;;;;;12.37;6.13;;;8.60;99.90;;;;;;4112684;28;20046;-64
2024/02/11 05:13:18;;;;;;;13.00;6.53;;;8.60;99.90;;;;;;4100075;28;20035;-61
2024/02/11 05:15:20;;;;;;;18.83;6.87;;;8.70;99.90;;;;;;4098874;28;20649;-64
2024/02/11 05:17:21;;;;;;;12.20;5.90;;;8.60;99.90;;;;;;4098971;28;20106;-63
2024/02/11 05:19:22;;;;;;;11.93;6.40;;;8.60;99.90;;;;;;4099383;28;20078;-62
2024/02/11 05:21:24;;;;;;;12.13;6.17;;;8.50;99.90;;;;;;4098825;28;20043;-62
2024/02/11 05:23:25;;;;;;;14.13;6.97;;;8.50;99.90;;;;;;4100627;28;20436;-63
2024/02/11 05:25:27;;;;;;;14.50;6.07;;;8.50;99.90;;;;;;4114572;28;20050;-60
2024/02/11 05:27:29;;;;;;;10.67;6.13;;;8.50;99.90;;;;;;4104992;28;20106;-62
2024/02/11 05:29:31;;;;;;;18.03;8.43;;;8.50;99.90;;;;;;4110532;28;20440;-64
2024/02/11 05:31:32;;;;;;;15.47;7.00;;;8.50;99.90;;;;;;4112911;28;20109;-62
2024/02/11 05:33:34;;;;;;;10.87;6.10;;;8.50;99.90;;;;;;4114684;28;20071;-62
2024/02/11 05:35:37;;;;;;;10.60;6.57;;;8.50;99.90;;;;;;4113424;28;20046;-62
2024/02/11 05:37:38;;;;;;;12.60;5.37;;;8.50;99.90;;;;;;4112409;28;20078;-63
2024/02/11 05:39:42;;;;;;;15.57;6.73;;;8.50;99.90;;;;;;4113117;28;20047;-60
2024/02/11 05:41:45;;;;;;;15.87;6.77;;;8.50;99.90;;;;;;4111382;28;20022;-63
2024/02/11 05:43:46;;;;;;;13.70;6.87;;;8.40;99.90;;;;;;4102263;28;20436;-61
2024/02/11 05:45:47;;;;;;;15.93;7.10;;;8.40;99.90;;;;;;4097852;28;20859;-59
2024/02/11 05:47:49;;;;;;;16.83;6.57;;;8.50;99.90;;;;;;4098622;28;20400;-62
2024/02/11 05:49:51;;;;;;;14.63;6.90;;;8.50;99.90;;;;;;4097821;29;20495;-62
2024/02/11 05:51:52;;;;;;;12.33;6.37;;;8.50;99.90;;;;;;4098383;28;20586;-60
2024/02/11 05:53:54;;;;;;;13.03;5.80;;;8.50;99.90;;;;;;4104434;28;20086;-62
2024/02/11 05:55:57;;;;;;;12.47;5.53;;;8.50;99.90;;;;;;4111127;28;20031;-64
2024/02/11 05:58:00;;;;;;;18.67;7.37;;;8.50;99.90;;;;;;4106157;28;20110;-62
2024/02/11 06:00:02;;;;;;;12.40;5.50;;;8.50;99.90;;;;;;4100833;28;20102;-59
2024/02/11 06:02:05;;;;;;;11.57;6.70;;;8.50;99.90;;;;;;4099207;28;20086;-63
2024/02/11 06:04:06;;;;;;;16.87;6.67;;;8.60;99.90;;;;;;4098304;29;20479;-63
2024/02/11 06:06:07;;;;;;;12.13;5.73;;;8.70;99.90;;;;;;4098174;28;20106;-59
2024/02/11 06:08:09;;;;;;;15.17;6.00;;;8.70;99.90;;;;;;4098244;28;20102;-63
2024/02/11 06:10:11;;;;;;;13.97;6.77;;;8.80;99.90;;;;;;4109116;28;20050;-62
2024/02/11 06:12:12;;;;;;;18.17;7.23;;;8.80;99.90;;;;;;4113802;28;20090;-63
2024/02/11 06:14:14;;;;;;;12.90;6.10;;;8.90;99.90;;;;;;4113042;28;20051;-58
2024/02/11 06:16:16;;;;;;;11.20;6.00;;;9.00;99.90;;;;;;4104484;28;20051;-64
2024/02/11 06:18:17;;;;;;;15.43;6.37;;;9.00;99.90;;;;;;4098852;28;20224;-63
2024/02/11 06:20:19;;;;;;;13.90;5.97;;;9.10;99.90;;;;;;4097355;28;20035;-65
2024/02/11 06:22:23;;;;;;;10.03;5.27;;;9.20;99.90;;;;;;4102649;28;20047;-64
2024/02/11 06:24:24;;;;;;;14.87;6.43;;;9.20;99.90;;;;;;4112695;28;20026;-62
2024/02/11 06:26:26;;;;;;;17.90;6.60;;;9.20;99.90;;;;;;4113791;28;20042;-60
2024/02/11 06:28:27;;;;;;;18.43;8.73;;;9.30;99.90;;;;;;4112629;28;20027;-62
2024/02/11 06:30:29;;;;;;;14.17;6.67;;;9.40;99.90;;;;;;4113553;28;20051;-62
2024/02/11 06:32:31;;;;;;;10.67;6.40;;;9.40;99.90;;;;;;4112377;28;20023;-60
2024/02/11 06:34:32;;;;;;;11.60;5.47;;;9.50;99.90;;;;;;4113457;28;20055;-62
2024/02/11 06:36:39;;;;;;;11.60;5.70;;;9.60;99.90;;;;;;4111582;28;20042;-59
2024/02/11 06:38:41;;;;;;;11.73;5.57;;;9.50;99.90;;;;;;4113746;28;20046;-61
2024/02/11 06:40:42;;;;;;;12.57;5.97;;;9.50;99.90;;;;;;4111888;28;20078;-60
2024/02/11 06:42:47;;;;;;;15.47;8.37;;;9.60;99.90;;;;;;4105812;28;20042;-66
2024/02/11 06:44:49;;;;;;;11.73;7.30;;;9.60;99.90;;;;;;4112098;28;20047;-62
2024/02/11 06:46:50;;;;;;;14.83;7.23;;;9.60;99.90;;;;;;4113134;28;20233;-63
2024/02/11 06:48:52;;;;;;;15.20;7.33;;;9.60;99.90;;;;;;4112161;28;20023;-64
2024/02/11 06:50:54;;;;;;;10.43;6.10;;;9.50;99.90;;;;;;4111682;28;20034;-62
2024/02/11 06:52:56;;;;;;;13.53;5.77;;;9.50;99.90;;;;;;4112792;28;20031;-67
2024/02/11 06:54:58;;;;;;;8.93;5.67;;;9.40;99.90;;;;;;4112421;28;20105;-62
2024/02/11 06:56:59;;;;;;;15.17;6.37;;;9.40;99.90;;;;;;4113020;28;20035;-63
2024/02/11 06:59:03;;;;;;;12.77;5.37;;;9.40;99.90;;;;;;4110507;28;20039;-63
2024/02/11 07:01:10;;;;;;;8.93;5.53;;;9.40;99.90;;;;;;4109499;28;20099;-62
2024/02/11 07:03:11;;;;;;;11.00;5.60;;;9.40;99.90;;;;;;4110510;28;20039;-58
2024/02/11 07:05:15;;;;;;;10.00;5.47;;;9.40;99.90;;;;;;4111933;28;20077;-56
2024/02/11 07:07:16;;;;;;;11.60;5.97;;;9.40;99.90;;;;;;4112534;28;20039;-64
2024/02/11 07:09:20;;;;;;;9.97;5.53;;;9.50;99.90;;;;;;4113237;28;20427;-63
2024/02/11 07:11:22;;;;;;;14.13;5.70;;;9.50;99.90;;;;;;4111944;28;20031;-62
2024/02/11 07:13:23;;;;;;;14.83;5.97;;;9.50;99.90;;;;;;4111423;28;20035;-59
2024/02/11 07:15:25;;;;;;;8.97;5.87;;;9.50;99.90;;;;;;4111434;28;20065;-62
2024/02/11 07:17:30;;;;;;;9.90;5.63;;;9.50;99.90;;;;;;4112577;28;20086;-63
2024/02/11 07:19:33;;;;;;;12.60;6.10;;;9.50;99.90;;;;;;4112245;28;20431;-60
2024/02/11 07:21:36;;;;;;;11.80;5.57;;;9.50;99.90;;;;;;4112977;28;20439;-62
2024/02/11 07:23:40;;;;;;;14.13;6.57;;;9.50;99.90;;;;;;4112151;28;20034;-64
2024/02/11 07:25:41;;;;;;;13.40;6.30;;;9.40;99.90;;;;;;4112581;28;20035;-69
2024/02/11 07:27:43;;;;;;;13.67;6.73;;;9.40;99.90;;;;;;4112264;28;20100;-64
2024/02/11 07:29:44;;;;;;;14.83;6.03;;;9.40;99.90;;;;;;4112169;28;20063;-64
2024/02/11 07:31:46;;;;;;;18.20;6.10;;;9.50;99.90;;;;;;4111675;28;20043;-69
2024/02/11 07:33:49;;;;;;;11.63;5.57;;;9.50;99.90;;;;;;4111924;28;20085;-66
2024/02/11 07:35:50;;;;;;;10.27;5.43;;;9.50;99.90;;;;;;4112676;28;20035;-65
2024/02/11 07:37:51;;;;;;;19.20;6.40;;;9.50;99.90;;;;;;4110408;28;20043;-63
2024/02/11 07:39:53;;;;;;;15.10;7.83;;;9.50;99.90;;;;;;4111321;28;20066;-64
2024/02/11 07:41:54;;;;;;;15.23;5.40;;;9.60;99.90;;;;;;4096941;28;20071;-64
2024/02/11 07:43:56;;;;;;;10.33;5.30;;;9.50;99.90;;;;;;4112824;28;20043;-60
2024/02/11 07:45:57;;;;;;;14.23;5.97;;;9.60;99.90;;;;;;4111431;28;20047;-63
2024/02/11 07:47:59;;;;;;;10.87;5.70;;;9.60;99.90;;;;;;4112186;28;20055;-61
2024/02/11 07:50:01;;;;;;;8.83;4.50;;;9.70;99.90;;;;;;4112427;28;20042;-64
2024/02/11 07:52:03;;;;;;;14.03;5.03;;;9.70;99.90;;;;;;4113096;28;20094;-61
2024/02/11 07:54:04;;;;;;;10.77;5.50;;;9.70;99.90;;;;;;4110386;28;20125;-62
2024/02/11 07:56:11;;;;;;;10.53;5.20;;;9.80;99.90;;;;;;4103009;28;20035;-61
2024/02/11 07:58:13;;;;;;;9.63;5.07;;;9.80;99.90;;;;;;4096820;28;20039;-61
2024/02/11 08:00:14;;;;;;;12.13;5.07;;;9.90;99.90;;;;;;4096117;28;20090;-58
2024/02/11 08:02:15;;;;;;;14.47;5.40;;;9.90;99.90;;;;;;4096789;28;20015;-63
2024/02/11 08:04:18;;;;;;;12.33;4.93;;;9.90;99.90;;;;;;4095729;29;20035;-64
2024/02/11 08:06:19;;;;;;;9.80;4.60;;;10.00;99.90;;;;;;4097266;28;20039;-59
2024/02/11 08:08:21;;;;;;;13.07;4.80;;;10.00;99.90;;;;;;4095645;28;20077;-63
2024/02/11 08:10:22;;;;;;;9.03;4.33;;;10.10;99.90;;;;;;4096601;29;20063;-60
2024/02/11 08:12:23;;;;;;;9.53;3.97;;;10.10;99.90;;;;;;4095854;28;20095;-76
2024/02/11 08:14:25;;;;;;;10.83;4.73;;;10.20;99.90;;;;;;4096463;28;20035;-62
2024/02/11 08:16:26;;;;;;;12.70;4.53;;;10.30;99.90;;;;;;4094706;28;20059;-63
2024/02/11 08:18:28;;;;;;;11.87;4.23;;;10.30;99.90;;;;;;4100796;28;20035;-66
2024/02/11 08:20:30;;;;;;;11.87;3.97;;;10.40;99.90;;;;;;4111587;28;20081;-63
2024/02/11 08:22:31;;;;;;;16.50;4.40;;;10.50;99.90;;;;;;4108199;28;20550;-60
2024/02/11 08:24:33;;;;;;;7.33;3.67;;;10.60;99.90;;;;;;4095357;28;20047;-60
2024/02/11 08:26:35;;;;;;;6.80;3.57;;;10.70;99.90;;;;;;4096423;29;20031;-61
2024/02/11 08:28:36;;;;;;;5.80;4.10;;;10.80;99.90;;;;;;4095329;29;20086;-61
2024/02/11 08:30:37;;;;;;;12.73;4.57;;;10.80;99.90;;;;;;4095835;29;20035;-64
2024/02/11 08:32:38;;;;;;;14.17;4.37;;;10.80;99.90;;;;;;4095717;29;20032;-61
2024/02/11 08:34:40;;;;;;;13.80;4.23;;;10.80;99.90;;;;;;4095873;29;20428;-64
2024/02/11 08:36:41;;;;;;;10.70;3.73;;;10.90;99.90;;;;;;4095921;29;20459;-62
2024/02/11 08:38:42;;;;;;;16.67;4.00;;;10.90;99.90;;;;;;4095309;29;20082;-63
2024/02/11 08:40:44;;;;;;;5.43;3.00;;;11.00;99.90;;;;;;4095811;28;20098;-62
2024/02/11 08:42:45;;;;;;;10.07;3.87;;;11.10;99.90;;;;;;4097616;28;20032;-60
2024/02/11 08:44:46;;;;;;;8.23;3.60;;;11.20;99.90;;;;;;4099043;29;20039;-58
2024/02/11 08:46:48;;;;;;;10.60;3.47;;;11.20;99.90;;;;;;4098165;28;20051;-60
2024/02/11 08:48:50;;;;;;;7.37;4.03;;;11.30;99.90;;;;;;4099075;29;20027;-62
2024/02/11 08:50:51;;;;;;;10.87;3.30;;;11.30;99.90;;;;;;4098354;29;20086;-63
2024/02/11 08:52:53;;;;;;;9.93;3.90;;;11.40;99.90;;;;;;4098965;29;20098;-64
2024/02/11 08:54:54;;;;;;;7.90;3.30;;;11.40;99.90;;;;;;4098034;29;20032;-63
2024/02/11 08:56:56;;;;;;;7.23;3.40;;;11.50;99.90;;;;;;4099203;29;20487;-62
2024/02/11 08:58:58;;;;;;;10.67;4.23;;;11.50;99.90;;;;;;4098067;28;20043;-64
2024/02/11 09:00:59;;;;;;;9.80;3.67;;;11.50;99.90;;;;;;4098705;28;20039;-66
2024/02/11 09:03:01;;;;;;;13.43;4.60;;;11.60;99.90;;;;;;4098348;28;20094;-63
2024/02/11 09:05:03;;;;;;;9.00;4.20;;;11.70;99.90;;;;;;4098738;28;20051;-60
2024/02/11 09:07:09;;;;;;;10.30;4.60;;;11.70;99.90;;;;;;4098499;28;20051;-63
2024/02/11 09:09:11;;;;;;;14.33;4.07;;;11.70;99.90;;;;;;4098438;28;20060;-63
2024/02/11 09:11:15;;;;;;;10.33;4.20;;;11.80;99.90;;;;;;4098525;28;20459;-63
2024/02/11 09:13:16;;;;;;;7.90;3.93;;;11.90;99.90;;;;;;4098169;28;20119;-63
2024/02/11 09:15:18;;;;;;;11.40;4.60;;;12.00;99.90;;;;;;4098623;28;20047;-63
2024/02/11 09:17:19;;;;;;;12.03;4.37;;;12.10;99.90;;;;;;4097809;28;20094;-64
2024/02/11 09:19:23;;;;;;;9.10;3.73;;;12.20;99.90;;;;;;4099050;29;20039;-63
2024/02/11 09:21:25;;;;;;;7.90;4.20;;;12.30;99.90;;;;;;4097889;29;20074;-60
2024/02/11 09:23:26;;;;;;;8.23;3.50;;;12.50;99.90;;;;;;4098722;29;20034;-60
2024/02/11 09:25:28;;;;;;;7.87;3.33;;;12.80;99.90;;;;;;4097588;28;20117;-60
2024/02/11 09:27:30;;;;;;;3.80;1.70;;;13.00;99.90;;;;;;4098559;29;20106;-61
2024/02/11 09:29:31;;;;;;;6.63;2.03;;;13.40;99.90;;;;;;4097697;28;20216;-61
2024/02/11 09:31:32;;;;;;;5.10;1.93;;;13.80;99.90;;;;;;4098384;28;20495;-61
2024/02/11 09:33:35;;;;;;;4.47;1.87;;;14.10;98.90;;;;;;4097594;29;20039;-62
2024/02/11 09:35:36;;;;;;;5.40;1.43;;;14.30;98.60;;;;;;4098190;29;20035;-61
2024/02/11 09:37:37;;;;;;;6.70;3.63;;;14.50;97.60;;;;;;4097853;28;20471;-62
2024/02/11 09:39:39;;;;;;;9.50;3.50;;;14.70;97.30;;;;;;4097969;29;20039;-61
2024/02/11 09:41:41;;;;;;;8.30;3.27;;;14.70;96.80;;;;;;4098227;29;20031;-62
2024/02/11 09:43:45;;;;;;;10.70;3.87;;;14.60;97.00;;;;;;4097817;28;20086;-64
2024/02/11 09:45:48;;;;;;;5.90;2.40;;;14.30;97.40;;;;;;4097971;29;20023;-62
2024/02/11 09:47:52;;;;;;;7.03;2.60;;;14.10;97.50;;;;;;4097253;29;20086;-62
2024/02/11 09:49:56;;;;;;;5.27;2.90;;;13.90;97.50;;;;;;4098473;28;20035;-64
2024/02/11 09:52:00;;;;;;;6.50;2.83;;;13.90;97.70;;;;;;4097624;28;20504;-61
2024/02/11 09:54:06;;;;;;;8.27;2.70;;;13.90;97.70;;;;;;4097877;28;20373;-62
2024/02/11 09:56:07;;;;;;;9.27;3.10;;;13.80;97.70;;;;;;4097412;29;20365;-61
2024/02/11 09:58:09;;;;;;;9.23;3.27;;;13.90;97.80;;;;;;4098421;29;20078;-64
2024/02/11 10:00:11;;;;;;;8.00;4.20;;;13.90;97.60;;;;;;4097111;29;20070;-61
2024/02/11 10:02:18;;;;;;;5.47;2.83;;;13.90;97.70;;;;;;4098393;29;20396;-61
2024/02/11 10:04:31;;;;;;;4.63;2.93;;;14.10;97.00;;;;;;4097034;29;20035;-61
2024/02/11 10:06:41;;;;;;;11.33;4.40;;;14.20;97.40;;;;;;4098641;28;20114;-62
2024/02/11 10:08:42;;;;;;;8.97;3.30;;;14.10;97.40;;;;;;4096945;29;20609;-60
2024/02/11 10:10:44;;;;;;;8.00;2.87;;;14.10;97.70;;;;;;4098180;28;20050;-62
2024/02/11 10:12:48;;;;;;;10.50;3.10;;;14.10;97.50;;;;;;4096717;29;20035;-60
2024/02/11 10:14:52;;;;;;;6.13;2.73;;;14.20;97.30;;;;;;4097942;28;20035;-62
2024/02/11 10:16:54;;;;;;;3.15;1.80;;;14.40;97.30;;;;;;4096758;28;20444;-62
2024/02/11 10:18:59;;;;;;;6.93;1.57;;;14.70;96.30;;;;;;4098134;28;20043;-61
2024/02/11 10:21:00;;;;;;;8.17;1.60;;;15.20;95.40;;;;;;4097424;29;20027;-61
2024/02/11 10:23:04;;;;;;;4.50;1.00;;;15.50;94.70;;;;;;4097509;28;20093;-64
2024/02/11 10:25:09;;;;;;;5.68;1.05;;;15.80;94.30;;;;;;4095966;28;20067;-62
2024/02/11 10:27:10;;;;;;;3.83;1.70;;;16.10;92.70;;;;;;4097316;28;20051;-60
2024/02/11 10:29:11;;;;;;;2.33;0.57;;;16.40;91.60;;;;;;4097363;28;20047;-60
2024/02/11 10:31:13;;;;;;;2.40;1.02;;;16.60;91.30;;;;;;4096666;29;20078;-61
2024/02/11 10:33:15;;;;;;;3.00;0.95;;;16.70;90.80;;;;;;4097749;28;20480;-62
2024/02/11 10:35:17;;;;;;;3.15;1.02;;;16.70;90.20;;;;;;4096370;28;20094;-61